sensor_id;sensor_type;location;lat;lon;timestamp;pressure;altitude;pressure_sealevel;temperature;humidity
5455;BME280;2750;49.050;9.250;2023-03-04T00:03:08;99378.50;;;2.99;84.35
5455;BME280;2750;49.050;9.250;2023-03-04T00:08:11;99379.25;;;3.16;82.89
5455;BME280;2750;49.050;9.250;2023-03-04T00:13:13;99385.44;;;2.86;82.55
5455;BME280;2750;49.050;9.250;2023-03-04T00:18:16;99384.63;;;2.78;83.78
5455;BME280;2750;49.050;9.250;2023-03-04T00:23:18;99381.31;;;2.54;83.28
5455;BME280;2750;49.050;9.250;2023-03-04T00:28:20;99384.78;;;2.42;83.99
5455;BME280;2750;49.050;9.250;2023-03-04T00:33:22;99382.13;;;2.68;83.51
5455;BME280;2750;49.050;9.250;2023-03-04T00:38:24;99389.06;;;2.45;83.78
5455;BME280;2750;49.050;9.250;2023-03-04T00:43:26;99395.09;;;2.22;83.75
5455;BME280;2750;49.050;9.250;2023-03-04T00:48:29;99388.25;;;2.30;83.52
5455;BME280;2750;49.050;9.250;2023-03-04T00:53:31;99376.28;;;2.37;82.93
5455;BME280;2750;49.050;9.250;2023-03-04T00:58:33;99376.25;;;2.48;83.52
5455;BME280;2750;49.050;9.250;2023-03-04T01:03:34;99379.69;;;2.34;83.24
5455;BME280;2750;49.050;9.250;2023-03-04T01:08:38;99368.66;;;2.29;83.32
5455;BME280;2750;49.050;9.250;2023-03-04T01:13:39;99368.63;;;2.37;83.48
5455;BME280;2750;49.050;9.250;2023-03-04T01:18:41;99368.59;;;2.38;83.05
5455;BME280;2750;49.050;9.250;2023-03-04T01:23:44;99369.47;;;2.34;82.71
5455;BME280;2750;49.050;9.250;2023-03-04T01:28:45;99367.81;;;2.24;82.25
5455;BME280;2750;49.050;9.250;2023-03-04T01:33:47;99369.50;;;2.27;81.76
5455;BME280;2750;49.050;9.250;2023-03-04T01:38:49;99364.41;;;2.16;82.35
5455;BME280;2750;49.050;9.250;2023-03-04T01:43:53;99364.41;;;2.25;82.52
5455;BME280;2750;49.050;9.250;2023-03-04T01:48:55;99361.94;;;1.93;82.99
5455;BME280;2750;49.050;9.250;2023-03-04T01:53:58;99366.19;;;1.99;82.61
5455;BME280;2750;49.050;9.250;2023-03-04T01:59:08;99367.97;;;1.50;83.79
5455;BME280;2750;49.050;9.250;2023-03-04T02:04:10;99366.28;;;1.41;85.32
5455;BME280;2750;49.050;9.250;2023-03-04T02:09:14;99360.25;;;1.83;84.07
5455;BME280;2750;49.050;9.250;2023-03-04T02:14:16;99357.69;;;1.80;83.16
5455;BME280;2750;49.050;9.250;2023-03-04T02:19:26;99358.59;;;1.55;84.62
5455;BME280;2750;49.050;9.250;2023-03-04T02:24:37;99350.06;;;1.67;84.16
5455;BME280;2750;49.050;9.250;2023-03-04T02:29:42;99350.94;;;1.20;84.43
5455;BME280;2750;49.050;9.250;2023-03-04T02:34:45;99359.50;;;1.15;84.41
5455;BME280;2750;49.050;9.250;2023-03-04T02:39:48;99359.47;;;1.31;84.27
5455;BME280;2750;49.050;9.250;2023-03-04T02:45:00;99350.94;;;1.20;84.51
5455;BME280;2750;49.050;9.250;2023-03-04T02:50:01;99367.13;;;0.95;84.45
5455;BME280;2750;49.050;9.250;2023-03-04T02:55:03;99350.06;;;0.77;86.02
5455;BME280;2750;49.050;9.250;2023-03-04T03:00:07;99354.38;;;1.07;86.12
5455;BME280;2750;49.050;9.250;2023-03-04T03:05:10;99346.72;;;1.18;84.92
5455;BME280;2750;49.050;9.250;2023-03-04T03:10:12;99359.47;;;1.13;83.65
5455;BME280;2750;49.050;9.250;2023-03-04T03:15:15;99355.22;;;1.02;84.66
5455;BME280;2750;49.050;9.250;2023-03-04T03:20:17;99355.19;;;0.94;85.29
5455;BME280;2750;49.050;9.250;2023-03-04T03:25:19;99361.16;;;1.08;85.02
5455;BME280;2750;49.050;9.250;2023-03-04T03:30:22;99356.06;;;1.10;82.88
5455;BME280;2750;49.050;9.250;2023-03-04T03:35:23;99361.16;;;1.05;81.54
5455;BME280;2750;49.050;9.250;2023-03-04T03:40:25;99354.38;;;0.92;81.92
5455;BME280;2750;49.050;9.250;2023-03-04T03:45:28;99358.59;;;0.88;82.10
5455;BME280;2750;49.050;9.250;2023-03-04T03:50:30;99347.53;;;0.82;82.13
5455;BME280;2750;49.050;9.250;2023-03-04T03:55:32;99353.47;;;0.85;81.21
5455;BME280;2750;49.050;9.250;2023-03-04T04:00:35;99357.75;;;0.73;80.99
5455;BME280;2750;49.050;9.250;2023-03-04T04:05:36;99362.84;;;0.76;80.80
5455;BME280;2750;49.050;9.250;2023-03-04T04:10:38;99363.66;;;0.64;81.66
5455;BME280;2750;49.050;9.250;2023-03-04T04:15:41;99367.91;;;0.67;81.49
5455;BME280;2750;49.050;9.250;2023-03-04T04:20:43;99372.16;;;0.57;81.68
5455;BME280;2750;49.050;9.250;2023-03-04T04:25:44;99370.44;;;0.58;81.12
5455;BME280;2750;49.050;9.250;2023-03-04T04:30:47;99373.03;;;0.61;82.02
5455;BME280;2750;49.050;9.250;2023-03-04T04:35:49;99367.84;;;0.42;82.13
5455;BME280;2750;49.050;9.250;2023-03-04T04:40:50;99374.53;;;0.16;82.29
5455;BME280;2750;49.050;9.250;2023-03-04T04:45:53;99372.88;;;0.21;83.67
5455;BME280;2750;49.050;9.250;2023-03-04T04:50:55;99372.81;;;0.09;82.89
5455;BME280;2750;49.050;9.250;2023-03-04T04:55:56;99381.34;;;0.13;81.70
5455;BME280;2750;49.050;9.250;2023-03-04T05:00:59;99388.22;;;0.30;81.45
5455;BME280;2750;49.050;9.250;2023-03-04T05:06:01;99394.88;;;0.01;82.05
5455;BME280;2750;49.050;9.250;2023-03-04T05:11:04;99401.34;;;-0.51;84.53
5455;BME280;2750;49.050;9.250;2023-03-04T05:16:07;99406.50;;;-0.40;84.83
5455;BME280;2750;49.050;9.250;2023-03-04T05:21:09;99400.66;;;-0.26;84.12
5455;BME280;2750;49.050;9.250;2023-03-04T05:26:13;99398.13;;;-0.27;84.53
5455;BME280;2750;49.050;9.250;2023-03-04T05:31:16;99402.25;;;-0.43;85.44
5455;BME280;2750;49.050;9.250;2023-03-04T05:36:18;99395.69;;;-0.09;85.25
5455;BME280;2750;49.050;9.250;2023-03-04T05:41:19;99398.31;;;0.09;84.65
5455;BME280;2750;49.050;9.250;2023-03-04T05:46:23;99403.63;;;0.59;84.32
5455;BME280;2750;49.050;9.250;2023-03-04T05:51:25;99398.63;;;1.09;84.46
5455;BME280;2750;49.050;9.250;2023-03-04T05:56:26;99392.69;;;1.27;84.40
5455;BME280;2750;49.050;9.250;2023-03-04T06:01:31;99396.97;;;1.57;83.36
5455;BME280;2750;49.050;9.250;2023-03-04T06:06:32;99409.72;;;1.61;83.52
5455;BME280;2750;49.050;9.250;2023-03-04T06:11:34;99418.22;;;1.77;81.82
5455;BME280;2750;49.050;9.250;2023-03-04T06:16:37;99417.38;;;1.95;81.92
5455;BME280;2750;49.050;9.250;2023-03-04T06:21:38;99425.91;;;1.77;83.32
5455;BME280;2750;49.050;9.250;2023-03-04T06:26:40;99427.63;;;1.84;84.49
5455;BME280;2750;49.050;9.250;2023-03-04T06:31:43;99429.31;;;1.79;84.85
5455;BME280;2750;49.050;9.250;2023-03-04T06:36:44;99425.81;;;2.21;84.92
5455;BME280;2750;49.050;9.250;2023-03-04T06:41:46;99422.31;;;2.57;85.50
5455;BME280;2750;49.050;9.250;2023-03-04T06:46:49;99429.81;;;2.84;83.09
5455;BME280;2750;49.050;9.250;2023-03-04T06:51:50;99429.00;;;2.77;84.68
5455;BME280;2750;49.050;9.250;2023-03-04T06:56:52;99440.94;;;2.80;85.69
5455;BME280;2750;49.050;9.250;2023-03-04T07:01:55;99456.00;;;3.41;84.04
5455;BME280;2750;49.050;9.250;2023-03-04T07:06:57;99452.72;;;3.17;83.37
5455;BME280;2750;49.050;9.250;2023-03-04T07:11:58;99463.13;;;2.90;85.12
5455;BME280;2750;49.050;9.250;2023-03-04T07:17:01;99459.72;;;2.80;86.13
5455;BME280;2750;49.050;9.250;2023-03-04T07:22:03;99469.63;;;3.43;84.99
5455;BME280;2750;49.050;9.250;2023-03-04T07:27:04;99457.59;;;3.54;83.73
5455;BME280;2750;49.050;9.250;2023-03-04T07:32:08;99467.63;;;3.79;83.84
5455;BME280;2750;49.050;9.250;2023-03-04T07:37:10;99471.06;;;3.80;84.41
5455;BME280;2750;49.050;9.250;2023-03-04T07:42:11;99470.78;;;4.13;82.82
5455;BME280;2750;49.050;9.250;2023-03-04T07:47:14;99463.72;;;4.30;82.60
5455;BME280;2750;49.050;9.250;2023-03-04T07:52:16;99475.91;;;4.90;82.21
5455;BME280;2750;49.050;9.250;2023-03-04T07:57:17;99481.09;;;4.83;82.75
5455;BME280;2750;49.050;9.250;2023-03-04T08:02:20;99480.25;;;4.86;81.81
5455;BME280;2750;49.050;9.250;2023-03-04T08:07:22;99476.78;;;5.48;81.26
5455;BME280;2750;49.050;9.250;2023-03-04T08:12:23;99484.81;;;5.85;80.76
5455;BME280;2750;49.050;9.250;2023-03-04T08:17:26;99479.69;;;6.36;80.13
5455;BME280;2750;49.050;9.250;2023-03-04T08:22:29;99484.00;;;6.78;79.78
5455;BME280;2750;49.050;9.250;2023-03-04T08:27:30;99478.97;;;6.72;77.50
5455;BME280;2750;49.050;9.250;2023-03-04T08:32:33;99489.97;;;6.36;77.26
5455;BME280;2750;49.050;9.250;2023-03-04T08:37:34;99497.00;;;6.26;77.52
5455;BME280;2750;49.050;9.250;2023-03-04T08:42:36;99490.84;;;6.36;77.45
5455;BME280;2750;49.050;9.250;2023-03-04T08:47:39;99496.88;;;6.34;77.33
5455;BME280;2750;49.050;9.250;2023-03-04T08:52:41;99496.00;;;6.36;77.75
5455;BME280;2750;49.050;9.250;2023-03-04T08:57:42;99491.00;;;6.71;76.66
5455;BME280;2750;49.050;9.250;2023-03-04T09:02:45;99487.75;;;6.62;76.50
5455;BME280;2750;49.050;9.250;2023-03-04T09:07:47;99486.97;;;6.58;76.51
5455;BME280;2750;49.050;9.250;2023-03-04T09:12:48;99486.13;;;6.58;76.51
5455;BME280;2750;49.050;9.250;2023-03-04T09:17:52;99487.38;;;7.23;75.12
5455;BME280;2750;49.050;9.250;2023-03-04T09:22:53;99476.38;;;7.52;73.88
5455;BME280;2750;49.050;9.250;2023-03-04T09:27:55;99485.25;;;7.77;74.21
5455;BME280;2750;49.050;9.250;2023-03-04T09:32:58;99483.06;;;8.31;71.41
5455;BME280;2750;49.050;9.250;2023-03-04T09:37:59;99490.63;;;8.03;72.84
5455;BME280;2750;49.050;9.250;2023-03-04T09:43:03;99488.44;;;8.22;73.37
5455;BME280;2750;49.050;9.250;2023-03-04T09:48:09;99487.66;;;8.83;70.03
5455;BME280;2750;49.050;9.250;2023-03-04T09:53:20;99486.13;;;9.07;68.87
5455;BME280;2750;49.050;9.250;2023-03-04T09:58:29;99483.91;;;8.32;70.03
5455;BME280;2750;49.050;9.250;2023-03-04T10:03:43;99490.47;;;8.76;69.08
5455;BME280;2750;49.050;9.250;2023-03-04T10:08:51;99486.50;;;9.52;65.74
5455;BME280;2750;49.050;9.250;2023-03-04T10:14:03;99494.56;;;8.52;67.52
5455;BME280;2750;49.050;9.250;2023-03-04T10:19:27;99484.97;;;8.57;68.07
5455;BME280;2750;49.050;9.250;2023-03-04T10:24:31;99483.34;;;8.53;67.85
5455;BME280;2750;49.050;9.250;2023-03-04T10:29:33;99477.81;;;8.00;67.95
5455;BME280;2750;49.050;9.250;2023-03-04T10:34:35;99477.91;;;7.59;69.66
5455;BME280;2750;49.050;9.250;2023-03-04T10:39:39;99475.81;;;6.58;72.99
5455;BME280;2750;49.050;9.250;2023-03-04T10:44:42;99470.28;;;7.90;69.95
5455;BME280;2750;49.050;9.250;2023-03-04T10:49:51;99470.75;;;8.05;69.27
5455;BME280;2750;49.050;9.250;2023-03-04T10:54:54;99471.78;;;7.64;70.58
5455;BME280;2750;49.050;9.250;2023-03-04T10:59:58;99471.09;;;7.58;69.87
5455;BME280;2750;49.050;9.250;2023-03-04T11:05:16;99463.66;;;8.13;68.88
5455;BME280;2750;49.050;9.250;2023-03-04T11:10:19;99459.59;;;7.33;68.66
5455;BME280;2750;49.050;9.250;2023-03-04T11:15:24;99462.00;;;7.42;69.03
5455;BME280;2750;49.050;9.250;2023-03-04T11:20:31;99447.59;;;6.93;70.90
5455;BME280;2750;49.050;9.250;2023-03-04T11:25:35;99447.44;;;6.13;73.57
5455;BME280;2750;49.050;9.250;2023-03-04T11:30:41;99448.06;;;7.49;70.30
5455;BME280;2750;49.050;9.250;2023-03-04T11:35:53;99445.28;;;7.19;71.32
5455;BME280;2750;49.050;9.250;2023-03-04T11:41:01;99439.38;;;7.51;70.06
5455;BME280;2750;49.050;9.250;2023-03-04T11:46:32;99444.78;;;7.04;70.64
5455;BME280;2750;49.050;9.250;2023-03-04T11:51:42;99440.25;;;6.31;72.68
5455;BME280;2750;49.050;9.250;2023-03-04T11:56:49;99426.97;;;6.06;72.97
5455;BME280;2750;49.050;9.250;2023-03-04T12:02:02;99427.72;;;6.12;72.93
5455;BME280;2750;49.050;9.250;2023-03-04T12:07:19;99417.16;;;6.69;71.29
5455;BME280;2750;49.050;9.250;2023-03-04T12:12:33;99400.75;;;6.29;71.98
5455;BME280;2750;49.050;9.250;2023-03-04T12:18:04;99406.06;;;6.22;70.60
5455;BME280;2750;49.050;9.250;2023-03-04T12:23:25;99393.78;;;6.77;70.69
5455;BME280;2750;49.050;9.250;2023-03-04T12:28:49;99393.47;;;6.90;69.17
5455;BME280;2750;49.050;9.250;2023-03-04T12:34:04;99388.09;;;6.61;70.39
5455;BME280;2750;49.050;9.250;2023-03-04T12:39:25;99373.31;;;6.28;71.60
5455;BME280;2750;49.050;9.250;2023-03-04T12:44:35;99377.81;;;6.99;69.47
5455;BME280;2750;49.050;9.250;2023-03-04T12:49:56;99371.22;;;6.86;69.48
5455;BME280;2750;49.050;9.250;2023-03-04T12:55:07;99369.19;;;6.62;70.40
5455;BME280;2750;49.050;9.250;2023-03-04T13:00:31;99361.06;;;6.79;70.08
5455;BME280;2750;49.050;9.250;2023-03-04T13:05:47;99357.84;;;6.69;69.71
5455;BME280;2750;49.050;9.250;2023-03-04T13:11:00;99353.44;;;6.74;70.21
5455;BME280;2750;49.050;9.250;2023-03-04T13:16:03;99358.81;;;7.02;70.02
5455;BME280;2750;49.050;9.250;2023-03-04T13:21:15;99359.22;;;7.22;69.15
5455;BME280;2750;49.050;9.250;2023-03-04T13:26:27;99358.94;;;7.33;68.09
5455;BME280;2750;49.050;9.250;2023-03-04T13:31:29;99360.44;;;7.43;67.55
5455;BME280;2750;49.050;9.250;2023-03-04T13:36:53;99351.91;;;7.04;69.34
5455;BME280;2750;49.050;9.250;2023-03-04T13:41:57;99357.66;;;7.15;68.25
5455;BME280;2750;49.050;9.250;2023-03-04T13:47:06;99355.13;;;6.75;69.15
5455;BME280;2750;49.050;9.250;2023-03-04T13:52:37;99358.63;;;7.11;68.70
5455;BME280;2750;49.050;9.250;2023-03-04T13:57:48;99357.63;;;6.40;70.12
5455;BME280;2750;49.050;9.250;2023-03-04T14:02:50;99350.22;;;5.77;72.14
5455;BME280;2750;49.050;9.250;2023-03-04T14:07:51;99341.22;;;6.44;70.48
5455;BME280;2750;49.050;9.250;2023-03-04T14:12:55;99339.25;;;6.55;70.70
5455;BME280;2750;49.050;9.250;2023-03-04T14:17:58;99331.25;;;6.67;69.74
5455;BME280;2750;49.050;9.250;2023-03-04T14:23:03;99330.41;;;7.03;69.11
5455;BME280;2750;49.050;9.250;2023-03-04T14:28:10;99327.66;;;6.74;69.44
5455;BME280;2750;49.050;9.250;2023-03-04T14:33:14;99318.03;;;6.82;70.11
5455;BME280;2750;49.050;9.250;2023-03-04T14:38:22;99318.56;;;6.58;69.96
5455;BME280;2750;49.050;9.250;2023-03-04T14:43:26;99314.06;;;7.04;69.15
5455;BME280;2750;49.050;9.250;2023-03-04T14:48:30;99305.19;;;6.79;69.10
5455;BME280;2750;49.050;9.250;2023-03-04T14:53:33;99303.38;;;7.19;68.74
5455;BME280;2750;49.050;9.250;2023-03-04T14:58:37;99295.38;;;7.29;68.34
5455;BME280;2750;49.050;9.250;2023-03-04T15:03:40;99297.41;;;7.82;67.27
5455;BME280;2750;49.050;9.250;2023-03-04T15:08:44;99288.84;;;7.49;67.79
5455;BME280;2750;49.050;9.250;2023-03-04T15:13:48;99290.22;;;7.29;68.18
5455;BME280;2750;49.050;9.250;2023-03-04T15:18:59;99289.44;;;7.27;67.65
5455;BME280;2750;49.050;9.250;2023-03-04T15:24:03;99297.88;;;6.98;68.07
5455;BME280;2750;49.050;9.250;2023-03-04T15:29:12;99284.84;;;7.02;69.08
5455;BME280;2750;49.050;9.250;2023-03-04T15:34:15;99287.22;;;6.74;69.34
5455;BME280;2750;49.050;9.250;2023-03-04T15:39:18;99275.00;;;7.19;69.16
5455;BME280;2750;49.050;9.250;2023-03-04T15:44:22;99276.25;;;7.03;68.85
5455;BME280;2750;49.050;9.250;2023-03-04T15:49:23;99277.22;;;6.98;68.92
5455;BME280;2750;49.050;9.250;2023-03-04T15:54:27;99279.50;;;7.44;68.06
5455;BME280;2750;49.050;9.250;2023-03-04T15:59:30;99281.38;;;7.39;68.48
5455;BME280;2750;49.050;9.250;2023-03-04T16:04:32;99276.63;;;7.24;68.28
5455;BME280;2750;49.050;9.250;2023-03-04T16:09:33;99276.81;;;7.14;68.05
5455;BME280;2750;49.050;9.250;2023-03-04T16:14:36;99282.38;;;6.99;68.51
5455;BME280;2750;49.050;9.250;2023-03-04T16:19:38;99277.06;;;6.68;70.20
5455;BME280;2750;49.050;9.250;2023-03-04T16:24:40;99283.84;;;6.34;71.01
5455;BME280;2750;49.050;9.250;2023-03-04T16:29:44;99269.38;;;6.67;70.39
5455;BME280;2750;49.050;9.250;2023-03-04T16:34:45;99280.66;;;6.63;71.66
5455;BME280;2750;49.050;9.250;2023-03-04T16:39:48;99279.03;;;6.59;71.13
5455;BME280;2750;49.050;9.250;2023-03-04T16:44:51;99280.53;;;6.67;71.30
5455;BME280;2750;49.050;9.250;2023-03-04T16:49:53;99275.06;;;6.81;73.39
5455;BME280;2750;49.050;9.250;2023-03-04T16:54:56;99265.44;;;6.89;73.35
5455;BME280;2750;49.050;9.250;2023-03-04T16:59:59;99264.97;;;7.07;74.94
5455;BME280;2750;49.050;9.250;2023-03-04T17:05:01;99262.56;;;7.34;73.74
5455;BME280;2750;49.050;9.250;2023-03-04T17:10:04;99258.72;;;7.50;72.33
5455;BME280;2750;49.050;9.250;2023-03-04T17:15:09;99264.63;;;7.55;71.14
5455;BME280;2750;49.050;9.250;2023-03-04T17:20:13;99276.34;;;7.33;71.56
5455;BME280;2750;49.050;9.250;2023-03-04T17:25:15;99276.91;;;7.45;71.38
5455;BME280;2750;49.050;9.250;2023-03-04T17:30:18;99281.31;;;7.40;72.31
5455;BME280;2750;49.050;9.250;2023-03-04T17:35:20;99293.13;;;6.81;72.94
5455;BME280;2750;49.050;9.250;2023-03-04T17:40:21;99291.47;;;7.14;72.46
5455;BME280;2750;49.050;9.250;2023-03-04T17:45:24;99289.03;;;7.42;71.34
5455;BME280;2750;49.050;9.250;2023-03-04T17:50:26;99287.00;;;7.54;70.49
5455;BME280;2750;49.050;9.250;2023-03-04T17:55:27;99283.06;;;7.06;71.95
5455;BME280;2750;49.050;9.250;2023-03-04T18:00:30;99288.00;;;7.49;72.14
5455;BME280;2750;49.050;9.250;2023-03-04T18:05:32;99285.28;;;7.53;72.07
5455;BME280;2750;49.050;9.250;2023-03-04T18:10:34;99274.91;;;7.22;72.35
5455;BME280;2750;49.050;9.250;2023-03-04T18:15:37;99285.59;;;7.43;72.10
5455;BME280;2750;49.050;9.250;2023-03-04T18:20:38;99283.13;;;7.37;71.88
5455;BME280;2750;49.050;9.250;2023-03-04T18:25:40;99266.56;;;7.47;71.27
5455;BME280;2750;49.050;9.250;2023-03-04T18:30:43;99273.06;;;7.28;72.95
5455;BME280;2750;49.050;9.250;2023-03-04T18:35:44;99267.47;;;7.10;73.08
5455;BME280;2750;49.050;9.250;2023-03-04T18:40:46;99271.38;;;6.91;73.60
5455;BME280;2750;49.050;9.250;2023-03-04T18:45:58;99262.88;;;7.21;72.61
5455;BME280;2750;49.050;9.250;2023-03-04T18:51:00;99264.66;;;7.19;72.55
5455;BME280;2750;49.050;9.250;2023-03-04T18:56:05;99263.22;;;7.42;72.62
5455;BME280;2750;49.050;9.250;2023-03-04T19:01:09;99252.25;;;7.34;72.61
5455;BME280;2750;49.050;9.250;2023-03-04T19:06:12;99252.91;;;7.08;73.11
5455;BME280;2750;49.050;9.250;2023-03-04T19:11:13;99253.91;;;7.02;73.45
5455;BME280;2750;49.050;9.250;2023-03-04T19:16:16;99249.72;;;6.98;73.70
5455;BME280;2750;49.050;9.250;2023-03-04T19:21:18;99244.03;;;7.19;72.44
5455;BME280;2750;49.050;9.250;2023-03-04T19:26:20;99254.09;;;6.95;74.48
5455;BME280;2750;49.050;9.250;2023-03-04T19:31:23;99240.31;;;6.96;73.62
5455;BME280;2750;49.050;9.250;2023-03-04T19:36:24;99244.91;;;7.18;72.83
5455;BME280;2750;49.050;9.250;2023-03-04T19:41:26;99246.44;;;7.26;72.90
5455;BME280;2750;49.050;9.250;2023-03-04T19:46:29;99244.59;;;6.97;73.22
5455;BME280;2750;49.050;9.250;2023-03-04T19:51:31;99225.22;;;7.14;73.86
5455;BME280;2750;49.050;9.250;2023-03-04T19:56:33;99236.97;;;6.92;74.32
5455;BME280;2750;49.050;9.250;2023-03-04T20:01:36;99225.81;;;6.92;74.01
5455;BME280;2750;49.050;9.250;2023-03-04T20:06:39;99234.09;;;6.69;74.72
5455;BME280;2750;49.050;9.250;2023-03-04T20:11:41;99229.41;;;7.20;73.48
5455;BME280;2750;49.050;9.250;2023-03-04T20:16:44;99233.69;;;7.52;72.71
5455;BME280;2750;49.050;9.250;2023-03-04T20:21:46;99236.13;;;7.58;72.86
5455;BME280;2750;49.050;9.250;2023-03-04T20:26:47;99242.25;;;7.54;72.59
5455;BME280;2750;49.050;9.250;2023-03-04T20:31:51;99243.44;;;7.73;72.34
5455;BME280;2750;49.050;9.250;2023-03-04T20:36:52;99236.22;;;7.55;71.67
5455;BME280;2750;49.050;9.250;2023-03-04T20:41:54;99226.44;;;7.66;72.28
5455;BME280;2750;49.050;9.250;2023-03-04T20:46:57;99232.31;;;7.71;71.40
5455;BME280;2750;49.050;9.250;2023-03-04T20:52:00;99227.88;;;7.76;71.92
5455;BME280;2750;49.050;9.250;2023-03-04T20:57:06;99230.00;;;7.91;71.69
5455;BME280;2750;49.050;9.250;2023-03-04T21:02:14;99229.50;;;7.79;71.69
5455;BME280;2750;49.050;9.250;2023-03-04T21:07:16;99233.97;;;7.74;71.70
5455;BME280;2750;49.050;9.250;2023-03-04T21:12:17;99227.06;;;7.74;71.44
5455;BME280;2750;49.050;9.250;2023-03-04T21:17:20;99210.78;;;7.70;72.36
5455;BME280;2750;49.050;9.250;2023-03-04T21:22:23;99213.69;;;7.60;72.44
5455;BME280;2750;49.050;9.250;2023-03-04T21:27:26;99210.03;;;7.67;71.83
5455;BME280;2750;49.050;9.250;2023-03-04T21:32:29;99204.75;;;7.72;72.34
5455;BME280;2750;49.050;9.250;2023-03-04T21:37:30;99192.47;;;7.49;72.55
5455;BME280;2750;49.050;9.250;2023-03-04T21:42:32;99200.06;;;7.55;73.59
5455;BME280;2750;49.050;9.250;2023-03-04T21:47:35;99187.75;;;7.32;73.76
5455;BME280;2750;49.050;9.250;2023-03-04T21:52:37;99186.53;;;7.14;74.54
5455;BME280;2750;49.050;9.250;2023-03-04T21:57:38;99191.94;;;7.38;73.06
5455;BME280;2750;49.050;9.250;2023-03-04T22:02:41;99193.28;;;7.51;73.71
5455;BME280;2750;49.050;9.250;2023-03-04T22:07:43;99181.63;;;7.67;72.71
5455;BME280;2750;49.050;9.250;2023-03-04T22:12:44;99177.94;;;7.76;72.45
5455;BME280;2750;49.050;9.250;2023-03-04T22:17:47;99179.31;;;7.87;71.34
5455;BME280;2750;49.050;9.250;2023-03-04T22:22:49;99170.59;;;7.91;71.96
5455;BME280;2750;49.050;9.250;2023-03-04T22:27:50;99167.38;;;7.83;72.07
5455;BME280;2750;49.050;9.250;2023-03-04T22:32:53;99171.59;;;7.86;71.92
5455;BME280;2750;49.050;9.250;2023-03-04T22:37:55;99166.19;;;7.95;71.35
5455;BME280;2750;49.050;9.250;2023-03-04T22:42:57;99157.78;;;7.88;71.57
5455;BME280;2750;49.050;9.250;2023-03-04T22:48:00;99164.44;;;7.95;72.45
5455;BME280;2750;49.050;9.250;2023-03-04T22:53:02;99164.25;;;7.43;72.69
5455;BME280;2750;49.050;9.250;2023-03-04T22:58:05;99160.81;;;7.73;72.68
5455;BME280;2750;49.050;9.250;2023-03-04T23:03:08;99156.28;;;7.81;71.78
5455;BME280;2750;49.050;9.250;2023-03-04T23:08:10;99142.06;;;7.66;72.55
5455;BME280;2750;49.050;9.250;2023-03-04T23:13:12;99148.50;;;7.52;72.60
5455;BME280;2750;49.050;9.250;2023-03-04T23:18:15;99155.78;;;7.68;72.67
5455;BME280;2750;49.050;9.250;2023-03-04T23:23:16;99145.75;;;7.58;72.72
5455;BME280;2750;49.050;9.250;2023-03-04T23:28:18;99149.44;;;7.49;72.89
5455;BME280;2750;49.050;9.250;2023-03-04T23:33:20;99144.78;;;7.62;73.67
5455;BME280;2750;49.050;9.250;2023-03-04T23:38:22;99145.56;;;7.35;73.16
5455;BME280;2750;49.050;9.250;2023-03-04T23:43:24;99136.75;;;7.71;72.61
5455;BME280;2750;49.050;9.250;2023-03-04T23:48:27;99133.69;;;7.58;72.59
5455;BME280;2750;49.050;9.250;2023-03-04T23:53:29;99131.47;;;7.46;73.27
5455;BME280;2750;49.050;9.250;2023-03-04T23:58:32;99134.44;;;7.62;72.85
